Nichiryu Maru — JG5632 — position and weather

sailwx.info

Track history (hours):
 
Tides and Currents Weather Stations Pressure Air Temp Water Temp Dewpoint Dewpoint Depression Visibility Wind Speed Wind Dir Waves Ship Positions

Nichiryu Maru

Last reported at 2018-Feb-25 00:44 UTC. Time now 2018-Feb-25 02:09 UTC.
Position N 34°44' E 137°19'.

Length 158 m; draft 6.5 m.

Type: Cargo ship. MMSI: 43100939.

Date/timePositionNaut miles runAvg speedWind from/ knotsBaromVisibWave heightAir tempDewpointWater temp
2018-Feb-25 00:44N 34°44' E 137°19'2 8.0
2018-Feb-25 00:30N 34°44' E 137°17'714.9
2018-Feb-25 00:00N 34°42' E 137°08'917.7
2018-Feb-24 23:31N 34°38' E 136°59'712.5
2018-Feb-24 22:59N 34°32' E 137°03'2918.4
2018-Feb-24 21:24N 34°05' E 136°48'1118.6
2018-Feb-24 20:48N 33°58' E 136°38'22718.0
2018-Feb-24 08:12N 33°05' E 132°13'420.9
2018-Feb-24 08:01N 33°08' E 132°10'1220.4
2018-Feb-24 07:25N 33°17' E 132°01'819.7
2018-Feb-24 07:01N 33°24' E 131°55'1020.0
2018-Feb-24 06:31N 33°33' E 131°50'1019.8
2018-Feb-24 06:01N 33°42' E 131°45'917.8
2018-Feb-24 05:30N 33°46' E 131°35'1019.6
2018-Feb-24 05:00N 33°47' E 131°24'917.9
2018-Feb-24 04:30N 33°49' E 131°13'714.5
2018-Feb-24 04:01N 33°49' E 131°04'4 8.3
2018-Feb-24 03:31N 33°46' E 131°00'0 0.0
2018-Feb-24 03:01N 33°46' E 131°00'0 0.0
2018-Feb-24 02:29N 33°46' E 131°00'0 0.0
2018-Feb-24 01:59N 33°46' E 131°00'0 0.0
2018-Feb-24 01:29N 33°46' E 131°00'0 0.0
2018-Feb-24 00:59N 33°46' E 131°00'0 0.0
2018-Feb-24 00:29N 33°46' E 131°00'0 0.0
2018-Feb-23 23:56N 33°46' E 131°00'0 0.0
2018-Feb-23 23:29N 33°46' E 131°00'0 0.0
2018-Feb-23 22:59N 33°46' E 131°00'0 0.0
2018-Feb-23 22:29N 33°46' E 131°00'0 0.0
2018-Feb-23 21:59N 33°46' E 131°00'0 0.0
2018-Feb-23 21:27N 33°46' E 131°00'2 3.6
2018-Feb-23 20:59N 33°48' E 131°01'613.0
2018-Feb-23 20:30N 33°49' E 131°09'816.6
2018-Feb-23 20:00N 33°48' E 131°18'918.3
2018-Feb-23 19:30N 33°47' E 131°29'918.6
2018-Feb-23 19:00N 33°46' E 131°41'919.0
2018-Feb-23 18:31N 33°45' E 131°52'1019.0
2018-Feb-23 18:00N 33°43' E 132°03'918.6
2018-Feb-23 17:30N 33°43' E 132°14'1019.3
2018-Feb-23 17:00N 33°47' E 132°25'918.7
2018-Feb-23 16:30N 33°52' E 132°34'918.3
2018-Feb-23 16:00N 33°58' E 132°43'7214.7
2018-Feb-23 11:05N 34°27' E 134°03'216.1
2018-Feb-23 10:57N 34°27' E 134°05'818.1
2018-Feb-23 10:30N 34°24' E 134°15'918.7
2018-Feb-23 10:00N 34°26' E 134°26'1019.2
2018-Feb-23 09:31N 34°30' E 134°37'918.8
2018-Feb-23 09:00N 34°33' E 134°47'917.0
2018-Feb-23 08:30N 34°37' E 134°56'714.2
2018-Feb-23 08:01N 34°36' E 135°05'917.5
2018-Feb-23 07:31N 34°37' E 135°15'4 7.4
2018-Feb-23 07:00N 34°41' E 135°13'0 0.0
2018-Feb-23 06:29N 34°41' E 135°13'0 0.0
2018-Feb-23 05:59N 34°41' E 135°13'0 0.0
2018-Feb-23 05:29N 34°41' E 135°13'0 0.0
2018-Feb-23 04:59N 34°41' E 135°13'0 0.0
2018-Feb-23 04:29N 34°41' E 135°13'0 0.0
2018-Feb-23 03:59N 34°41' E 135°13'0 1.0
2018-Feb-23 03:30N 34°41' E 135°14'510.6
2018-Feb-23 03:01N 34°36' E 135°16'918.9
2018-Feb-23 02:31N 34°28' E 135°10'1019.8
2018-Feb-23 02:01N 34°20' E 135°02'918.3
2018-Feb-23 01:30N 34°11' E 134°60'1019.3
2018-Feb-23 01:01N 34°01' E 134°60'1019.4
2018-Feb-23 00:30N 33°52' E 135°02'1019.5
2018-Feb-23 00:01N 33°44' E 135°08'16518.4
2018-Feb-22 15:01N 34°21' E 138°23'219.1
2018-Feb-22 14:55N 34°22' E 138°25'819.0
2018-Feb-22 14:30N 34°24' E 138°34'918.1
2018-Feb-22 13:59N 34°27' E 138°45'918.5
2018-Feb-22 13:30N 34°31' E 138°55'1019.4
2018-Feb-22 13:00N 34°37' E 139°04'1020.8
2018-Feb-22 12:30N 34°46' E 139°11'1019.8
2018-Feb-22 12:00N 34°53' E 139°19'1019.6
2018-Feb-22 11:30N 34°59' E 139°28'1019.8
2018-Feb-22 11:00N 35°04' E 139°39'917.9
2018-Feb-22 10:30N 35°11' E 139°46'612.7
2018-Feb-22 10:01N 35°17' E 139°45'5 9.5
2018-Feb-22 09:30N 35°19' E 139°39'0 0.0
2018-Feb-22 08:58N 35°19' E 139°39'0 0.0
2018-Feb-22 08:28N 35°19' E 139°39'0 0.0
2018-Feb-22 07:55N 35°19' E 139°39'0 0.0
2018-Feb-22 07:25N 35°19' E 139°39'0 0.0
2018-Feb-22 06:55N 35°19' E 139°39'0 0.0
2018-Feb-22 06:25N 35°19' E 139°39'0 0.0
2018-Feb-22 05:58N 35°19' E 139°39'0 0.0
2018-Feb-22 05:25N 35°19' E 139°39'0 0.0
2018-Feb-22 04:55N 35°19' E 139°39'0 0.0
2018-Feb-22 04:28N 35°19' E 139°39'0 0.0
2018-Feb-22 03:55N 35°19' E 139°39'0 0.7
2018-Feb-22 03:30N 35°19' E 139°39'510.0
2018-Feb-22 03:01N 35°17' E 139°45'612.2
2018-Feb-22 02:30N 35°11' E 139°47'918.8
2018-Feb-22 02:01N 35°03' E 139°42'1019.5
2018-Feb-22 01:30N 34°57' E 139°32'1018.8
2018-Feb-22 01:00N 34°51' E 139°23'1018.7
2018-Feb-22 00:27N 34°44' E 139°14'918.5
2018-Feb-21 23:59N 34°37' E 139°07'918.0
2018-Feb-21 23:30N 34°32' E 138°60'1018.4
2018-Feb-21 22:57N 34°29' E 138°48'919.4
2018-Feb-21 22:30N 34°25' E 138°38'1120.2
2018-Feb-21 21:58N 34°20' E 138°27'1020.1
2018-Feb-21 21:28N 34°16' E 138°16'31418.2
2018-Feb-21 04:16N 33°11' E 132°06'520.5
2018-Feb-21 04:00N 33°15' E 132°02'1019.9
2018-Feb-21 03:30N 33°24' E 131°56'1019.6
2018-Feb-21 03:00N 33°32' E 131°51'1019.6
2018-Feb-21 02:30N 33°41' E 131°45'917.6
2018-Feb-21 02:00N 33°46' E 131°37'1019.4
2018-Feb-21 01:31N 33°47' E 131°25'918.8
2018-Feb-21 01:01N 33°49' E 131°14'815.4
2018-Feb-21 00:31N 33°49' E 131°05'4 8.9
2018-Feb-21 00:01N 33°46' E 131°00'0 0.0
2018-Feb-20 23:28N 33°46' E 131°00'0 0.0
2018-Feb-20 22:58N 33°46' E 131°00'0 0.0
2018-Feb-20 22:28N 33°46' E 131°00'0 0.0
2018-Feb-20 21:58N 33°46' E 131°00'0 0.0
2018-Feb-20 21:28N 33°46' E 131°00'0 0.0
2018-Feb-20 20:58N 33°46' E 131°00'0 0.0
2018-Feb-20 20:28N 33°46' E 131°00'0 0.0
2018-Feb-20 19:58N 33°46' E 131°00'0 0.0
2018-Feb-20 19:25N 33°46' E 131°00'0 0.0
2018-Feb-20 18:58N 33°46' E 131°00'0 0.0
2018-Feb-20 18:28N 33°46' E 131°00'0 0.8
2018-Feb-20 18:00N 33°47' E 131°00'5 9.4
2018-Feb-20 17:31N 33°49' E 131°05'714.0
2018-Feb-20 17:01N 33°49' E 131°13'917.6
2018-Feb-20 16:31N 33°47' E 131°24'1 2.6
2018-Feb-20 16:01N 33°46' E 131°24'917.5
2018-Feb-20 15:31N 33°45' E 131°35'917.2
2018-Feb-20 15:00N 33°43' E 131°45'918.0
2018-Feb-20 14:31N 33°37' E 131°53'918.1
2018-Feb-20 14:00N 33°29' E 131°56'1019.3
2018-Feb-20 13:30N 33°19' E 131°59'1016.2
2018-Feb-20 12:53N 33°11' E 132°07'14513.2
2018-Feb-20 01:53N 33°32' E 134°59'14617.2
2018-Feb-19 17:24N 34°18' E 137°45'1717.6
2018-Feb-19 16:24N 34°22' E 138°06'1016.8
2018-Feb-19 15:50N 34°24' E 138°17'516.0
2018-Feb-19 15:30N 34°25' E 138°23'1017.4
2018-Feb-19 14:55N 34°28' E 138°36'716.5
2018-Feb-19 14:30N 34°29' E 138°44'816.5
2018-Feb-19 14:01N 34°31' E 138°53'816.1
2018-Feb-19 13:30N 34°35' E 139°02'1117.9
2018-Feb-19 12:54N 34°45' E 139°08'718.1
2018-Feb-19 12:30N 34°50' E 139°14'917.8
2018-Feb-19 11:59N 34°56' E 139°23'817.7
2018-Feb-19 11:30N 35°00' E 139°32'917.9
2018-Feb-19 11:00N 35°06' E 139°40'816.9
2018-Feb-19 10:30N 35°13' E 139°46'611.1
2018-Feb-19 10:00N 35°18' E 139°44'4 8.3
2018-Feb-19 09:30N 35°19' E 139°39'0 0.0
2018-Feb-19 08:59N 35°19' E 139°39'0 0.0
2018-Feb-19 08:24N 35°19' E 139°39'0 0.0
2018-Feb-19 07:59N 35°19' E 139°39'0 0.0
2018-Feb-19 07:29N 35°19' E 139°39'0 0.0
2018-Feb-19 07:00N 35°19' E 139°39'0 0.0
2018-Feb-19 06:30N 35°19' E 139°39'0 0.0
2018-Feb-19 06:00N 35°19' E 139°39'0 0.0
2018-Feb-19 05:30N 35°19' E 139°39'0 0.0
2018-Feb-19 04:59N 35°19' E 139°39'0 0.0
2018-Feb-19 04:30N 35°19' E 139°39'0 0.0
2018-Feb-19 04:00N 35°19' E 139°39'0 0.0
2018-Feb-19 03:30N 35°19' E 139°39'0 0.0
2018-Feb-19 02:59N 35°19' E 139°39'0 0.0
2018-Feb-19 02:30N 35°19' E 139°39'0 0.0
2018-Feb-19 01:59N 35°19' E 139°39'0 0.0
2018-Feb-19 01:29N 35°19' E 139°39'0 0.0
2018-Feb-19 01:00N 35°19' E 139°39'0 0.0
2018-Feb-19 00:23N 35°19' E 139°39'0 0.0
2018-Feb-18 23:59N 35°19' E 139°39'0 0.0
2018-Feb-18 23:29N 35°19' E 139°39'0 0.2
2018-Feb-18 23:00N 35°19' E 139°39'2 2.9
2018-Feb-18 22:29N 35°19' E 139°41'0 0.1
2018-Feb-18 21:59N 35°19' E 139°41'0 0.0
2018-Feb-18 21:29N 35°19' E 139°41'0 0.0
2018-Feb-18 20:56N 35°19' E 139°41'0 0.0
2018-Feb-18 20:29N 35°19' E 139°41'0 0.0
2018-Feb-18 19:59N 35°19' E 139°41'0 0.1
2018-Feb-18 19:29N 35°19' E 139°41'0 0.1
2018-Feb-18 18:47N 35°19' E 139°41'0 0.0
2018-Feb-18 18:26N 35°19' E 139°41'0 0.0
2018-Feb-18 17:59N 35°19' E 139°41'0 0.1
2018-Feb-18 17:29N 35°19' E 139°41'0 0.1
2018-Feb-18 16:56N 35°19' E 139°41'0 0.0
2018-Feb-18 16:29N 35°19' E 139°41'0 0.0
2018-Feb-18 15:59N 35°19' E 139°41'0 0.0
2018-Feb-18 15:29N 35°19' E 139°41'0 0.1
2018-Feb-18 14:59N 35°19' E 139°41'0 0.1
2018-Feb-18 14:29N 35°19' E 139°41'0 0.1
2018-Feb-18 13:59N 35°19' E 139°41'0 0.0
2018-Feb-18 13:29N 35°19' E 139°41'0 0.6
2018-Feb-18 13:00N 35°19' E 139°42'510.9
2018-Feb-18 12:30N 35°15' E 139°47'815.1
2018-Feb-18 12:00N 35°08' E 139°45'918.9
2018-Feb-18 11:31N 35°00' E 139°39'1220.2
2018-Feb-18 10:54N 34°53' E 139°26'820.2
2018-Feb-18 10:30N 34°48' E 139°19'1120.5
2018-Feb-18 09:58N 34°41' E 139°08'1019.4
2018-Feb-18 09:27N 34°35' E 138°60'918.6
2018-Feb-18 08:57N 34°33' E 138°49'919.7
2018-Feb-18 08:30N 34°33' E 138°38'1019.9
2018-Feb-18 07:58N 34°32' E 138°25'1120.3
2018-Feb-18 07:27N 34°31' E 138°12'920.3
2018-Feb-18 07:01N 34°31' E 138°01'1119.9
2018-Feb-18 06:28N 34°31' E 137°48'1319.7
2018-Feb-18 05:48N 34°31' E 137°32'719.6
2018-Feb-18 05:27N 34°32' E 137°24'919.9
2018-Feb-18 04:59N 34°32' E 137°13'917.0
2018-Feb-18 04:27N 34°32' E 137°01'612.9
2018-Feb-18 04:00N 34°38' E 136°59'917.9
2018-Feb-18 03:30N 34°42' E 137°08'814.3
2018-Feb-18 02:56N 34°44' E 137°18'1 0.4
2018-Feb-18 00:20N 34°44' E 137°19'2 5.1
2018-Feb-17 23:59N 34°44' E 137°17'814.0
2018-Feb-17 23:27N 34°42' E 137°08'817.7
2018-Feb-17 23:00N 34°38' E 137°00'3716.6
2018-Feb-17 20:47N 34°03' E 136°48'24017.5
2018-Feb-17 07:03N 33°09' E 132°07'120.3
2018-Feb-17 07:00N 33°09' E 132°07'1121.6
2018-Feb-17 06:30N 33°18' E 131°59'1021.2
2018-Feb-17 06:00N 33°27' E 131°53'1121.6
2018-Feb-17 05:31N 33°37' E 131°48'1020.2
2018-Feb-17 05:01N 33°46' E 131°41'1121.0
2018-Feb-17 04:30N 33°47' E 131°28'1019.7
2018-Feb-17 04:00N 33°48' E 131°16'816.1
2018-Feb-17 03:30N 33°49' E 131°07'611.8
2018-Feb-17 03:00N 33°46' E 131°00'0 0.1
2018-Feb-17 02:28N 33°46' E 131°00'0 0.0
2018-Feb-17 01:58N 33°46' E 131°00'0 0.0
2018-Feb-17 01:28N 33°46' E 131°00'0 0.0
2018-Feb-17 00:58N 33°46' E 131°00'0 0.0
2018-Feb-17 00:19N 33°46' E 131°00'0 0.0
2018-Feb-16 23:58N 33°46' E 131°00'0 0.0
2018-Feb-16 23:28N 33°46' E 131°00'0 0.0
2018-Feb-16 22:58N 33°46' E 131°00'0 0.0
2018-Feb-16 22:28N 33°46' E 131°00'0 0.0
2018-Feb-16 21:58N 33°46' E 131°00'0 0.0
2018-Feb-16 21:28N 33°46' E 131°00'1 2.2
2018-Feb-16 21:00N 33°47' E 131°01'612.1
2018-Feb-16 20:30N 33°49' E 131°08'816.9
2018-Feb-16 20:01N 33°48' E 131°18'918.1
2018-Feb-16 19:30N 33°47' E 131°28'917.5
2018-Feb-16 19:00N 33°46' E 131°39'816.7
2018-Feb-16 18:30N 33°44' E 131°49'816.8
2018-Feb-16 18:00N 33°40' E 131°58'4 7.7
2018-Feb-16 17:30N 33°42' E 132°02'918.5
2018-Feb-16 16:59N 33°43' E 132°13'1018.8
2018-Feb-16 16:28N 33°46' E 132°25'1018.7
2018-Feb-16 15:55N 33°52' E 132°34'818.5
2018-Feb-16 15:30N 33°57' E 132°42'7313.7
2018-Feb-16 10:11N 34°27' E 134°03'315.6
2018-Feb-16 09:59N 34°27' E 134°06'919.4
2018-Feb-16 09:31N 34°24' E 134°17'1019.0
2018-Feb-16 09:00N 34°27' E 134°28'919.0
2018-Feb-16 08:30N 34°31' E 134°38'918.7
2018-Feb-16 08:00N 34°34' E 134°49'917.9
2018-Feb-16 07:30N 34°37' E 134°59'917.3
2018-Feb-16 07:00N 34°37' E 135°10'611.1
2018-Feb-16 06:30N 34°40' E 135°15'1 2.5
2018-Feb-16 06:00N 34°41' E 135°13'0 0.0
2018-Feb-16 05:29N 34°41' E 135°13'0 0.0
2018-Feb-16 04:59N 34°41' E 135°13'0 0.0
2018-Feb-16 04:29N 34°41' E 135°13'0 0.1
2018-Feb-16 04:00N 34°41' E 135°14'3 6.8
2018-Feb-16 03:31N 34°38' E 135°16'918.0
2018-Feb-16 03:01N 34°30' E 135°12'1019.5
2018-Feb-16 02:31N 34°23' E 135°04'917.8
2018-Feb-16 02:00N 34°15' E 134°60'1019.5
2018-Feb-16 01:30N 34°05' E 134°60'1019.7
2018-Feb-16 01:00N 33°55' E 134°59'919.0
2018-Feb-16 00:30N 33°47' E 135°05'13818.1
2018-Feb-15 16:54N 34°09' E 137°49'718.4
2018-Feb-15 16:31N 34°12' E 137°57'1018.5
2018-Feb-15 15:57N 34°15' E 138°09'817.7
2018-Feb-15 15:30N 34°18' E 138°18'916.7
2018-Feb-15 14:57N 34°21' E 138°28'817.3
2018-Feb-15 14:30N 34°24' E 138°37'916.9
2018-Feb-15 13:57N 34°28' E 138°47'817.3
2018-Feb-15 13:30N 34°32' E 138°56'917.2
2018-Feb-15 13:00N 34°37' E 139°03'1019.1
2018-Feb-15 12:28N 34°45' E 139°11'918.8
2018-Feb-15 11:59N 34°52' E 139°18'918.4
2018-Feb-15 11:30N 34°57' E 139°27'1019.3
2018-Feb-15 11:01N 35°02' E 139°37'918.6
2018-Feb-15 10:30N 35°09' E 139°45'714.0
2018-Feb-15 10:00N 35°16' E 139°46'611.7
2018-Feb-15 09:31N 35°19' E 139°39'0 0.5
2018-Feb-15 08:59N 35°19' E 139°39'0 0.0
2018-Feb-15 08:29N 35°19' E 139°39'0 0.0
2018-Feb-15 07:59N 35°19' E 139°39'0 0.0
2018-Feb-15 07:29N 35°19' E 139°39'0 0.0
2018-Feb-15 06:59N 35°19' E 139°39'0 0.0
2018-Feb-15 06:29N 35°19' E 139°39'0 0.0
2018-Feb-15 05:59N 35°19' E 139°39'0 0.0
2018-Feb-15 05:26N 35°19' E 139°39'0 0.0
2018-Feb-15 04:59N 35°19' E 139°39'0 0.0
2018-Feb-15 04:29N 35°19' E 139°39'0 0.0
2018-Feb-15 03:59N 35°19' E 139°39'0 0.2
2018-Feb-15 03:31N 35°19' E 139°39'4 7.9
2018-Feb-15 03:01N 35°18' E 139°44'611.8
2018-Feb-15 02:31N 35°13' E 139°47'714.0
2018-Feb-15 02:01N 35°06' E 139°45'816.6
2018-Feb-15 01:30N 34°59' E 139°40'816.4
2018-Feb-15 01:00N 34°54' E 139°31'  
Track history (hours):
 
Tides and Currents Weather Stations Pressure Air Temp Water Temp Dewpoint Dewpoint Depression Visibility Wind Speed Wind Dir Waves Ship Positions

Nichiryu Maru

Last reported at 2018-Feb-25 00:44 UTC. Time now 2018-Feb-25 02:09 UTC.
Position N 34°44' E 137°19'.

Length 158 m; draft 6.5 m.

Type: Cargo ship. MMSI: 43100939.

Date/timePositionNaut miles runAvg speedWind from/ knotsBaromVisibWave heightAir tempDewpointWater temp
2018-Feb-25 00:44N 34°44' E 137°19'2 8.0
2018-Feb-25 00:30N 34°44' E 137°17'714.9
2018-Feb-25 00:00N 34°42' E 137°08'917.7
2018-Feb-24 23:31N 34°38' E 136°59'712.5
2018-Feb-24 22:59N 34°32' E 137°03'2918.4
2018-Feb-24 21:24N 34°05' E 136°48'1118.6
2018-Feb-24 20:48N 33°58' E 136°38'22718.0
2018-Feb-24 08:12N 33°05' E 132°13'420.9
2018-Feb-24 08:01N 33°08' E 132°10'1220.4
2018-Feb-24 07:25N 33°17' E 132°01'819.7
2018-Feb-24 07:01N 33°24' E 131°55'1020.0
2018-Feb-24 06:31N 33°33' E 131°50'1019.8
2018-Feb-24 06:01N 33°42' E 131°45'917.8
2018-Feb-24 05:30N 33°46' E 131°35'1019.6
2018-Feb-24 05:00N 33°47' E 131°24'917.9
2018-Feb-24 04:30N 33°49' E 131°13'714.5
2018-Feb-24 04:01N 33°49' E 131°04'4 8.3
2018-Feb-24 03:31N 33°46' E 131°00'0 0.0
2018-Feb-24 03:01N 33°46' E 131°00'0 0.0
2018-Feb-24 02:29N 33°46' E 131°00'0 0.0
2018-Feb-24 01:59N 33°46' E 131°00'0 0.0
2018-Feb-24 01:29N 33°46' E 131°00'0 0.0
2018-Feb-24 00:59N 33°46' E 131°00'0 0.0
2018-Feb-24 00:29N 33°46' E 131°00'0 0.0
2018-Feb-23 23:56N 33°46' E 131°00'0 0.0
2018-Feb-23 23:29N 33°46' E 131°00'0 0.0
2018-Feb-23 22:59N 33°46' E 131°00'0 0.0
2018-Feb-23 22:29N 33°46' E 131°00'0 0.0
2018-Feb-23 21:59N 33°46' E 131°00'0 0.0
2018-Feb-23 21:27N 33°46' E 131°00'2 3.6
2018-Feb-23 20:59N 33°48' E 131°01'613.0
2018-Feb-23 20:30N 33°49' E 131°09'816.6
2018-Feb-23 20:00N 33°48' E 131°18'918.3
2018-Feb-23 19:30N 33°47' E 131°29'918.6
2018-Feb-23 19:00N 33°46' E 131°41'919.0
2018-Feb-23 18:31N 33°45' E 131°52'1019.0
2018-Feb-23 18:00N 33°43' E 132°03'918.6
2018-Feb-23 17:30N 33°43' E 132°14'1019.3
2018-Feb-23 17:00N 33°47' E 132°25'918.7
2018-Feb-23 16:30N 33°52' E 132°34'918.3
2018-Feb-23 16:00N 33°58' E 132°43'7214.7
2018-Feb-23 11:05N 34°27' E 134°03'216.1
2018-Feb-23 10:57N 34°27' E 134°05'818.1
2018-Feb-23 10:30N 34°24' E 134°15'918.7
2018-Feb-23 10:00N 34°26' E 134°26'1019.2
2018-Feb-23 09:31N 34°30' E 134°37'918.8
2018-Feb-23 09:00N 34°33' E 134°47'917.0
2018-Feb-23 08:30N 34°37' E 134°56'714.2
2018-Feb-23 08:01N 34°36' E 135°05'917.5
2018-Feb-23 07:31N 34°37' E 135°15'4 7.4
2018-Feb-23 07:00N 34°41' E 135°13'0 0.0
2018-Feb-23 06:29N 34°41' E 135°13'0 0.0
2018-Feb-23 05:59N 34°41' E 135°13'0 0.0
2018-Feb-23 05:29N 34°41' E 135°13'0 0.0
2018-Feb-23 04:59N 34°41' E 135°13'0 0.0
2018-Feb-23 04:29N 34°41' E 135°13'0 0.0
2018-Feb-23 03:59N 34°41' E 135°13'0 1.0
2018-Feb-23 03:30N 34°41' E 135°14'510.6
2018-Feb-23 03:01N 34°36' E 135°16'918.9
2018-Feb-23 02:31N 34°28' E 135°10'1019.8
2018-Feb-23 02:01N 34°20' E 135°02'918.3
2018-Feb-23 01:30N 34°11' E 134°60'1019.3
2018-Feb-23 01:01N 34°01' E 134°60'1019.4
2018-Feb-23 00:30N 33°52' E 135°02'1019.5
2018-Feb-23 00:01N 33°44' E 135°08'16518.4
2018-Feb-22 15:01N 34°21' E 138°23'219.1
2018-Feb-22 14:55N 34°22' E 138°25'819.0
2018-Feb-22 14:30N 34°24' E 138°34'918.1
2018-Feb-22 13:59N 34°27' E 138°45'918.5
2018-Feb-22 13:30N 34°31' E 138°55'1019.4
2018-Feb-22 13:00N 34°37' E 139°04'1020.8
2018-Feb-22 12:30N 34°46' E 139°11'1019.8
2018-Feb-22 12:00N 34°53' E 139°19'1019.6
2018-Feb-22 11:30N 34°59' E 139°28'1019.8
2018-Feb-22 11:00N 35°04' E 139°39'917.9
2018-Feb-22 10:30N 35°11' E 139°46'612.7
2018-Feb-22 10:01N 35°17' E 139°45'5 9.5
2018-Feb-22 09:30N 35°19' E 139°39'0 0.0
2018-Feb-22 08:58N 35°19' E 139°39'0 0.0
2018-Feb-22 08:28N 35°19' E 139°39'0 0.0
2018-Feb-22 07:55N 35°19' E 139°39'0 0.0
2018-Feb-22 07:25N 35°19' E 139°39'0 0.0
2018-Feb-22 06:55N 35°19' E 139°39'0 0.0
2018-Feb-22 06:25N 35°19' E 139°39'0 0.0
2018-Feb-22 05:58N 35°19' E 139°39'0 0.0
2018-Feb-22 05:25N 35°19' E 139°39'0 0.0
2018-Feb-22 04:55N 35°19' E 139°39'0 0.0
2018-Feb-22 04:28N 35°19' E 139°39'0 0.0
2018-Feb-22 03:55N 35°19' E 139°39'0 0.7
2018-Feb-22 03:30N 35°19' E 139°39'510.0
2018-Feb-22 03:01N 35°17' E 139°45'612.2
2018-Feb-22 02:30N 35°11' E 139°47'918.8
2018-Feb-22 02:01N 35°03' E 139°42'1019.5
2018-Feb-22 01:30N 34°57' E 139°32'1018.8
2018-Feb-22 01:00N 34°51' E 139°23'1018.7
2018-Feb-22 00:27N 34°44' E 139°14'918.5
2018-Feb-21 23:59N 34°37' E 139°07'918.0
2018-Feb-21 23:30N 34°32' E 138°60'1018.4
2018-Feb-21 22:57N 34°29' E 138°48'919.4
2018-Feb-21 22:30N 34°25' E 138°38'1120.2
2018-Feb-21 21:58N 34°20' E 138°27'1020.1
2018-Feb-21 21:28N 34°16' E 138°16'31418.2
2018-Feb-21 04:16N 33°11' E 132°06'520.5
2018-Feb-21 04:00N 33°15' E 132°02'1019.9
2018-Feb-21 03:30N 33°24' E 131°56'1019.6
2018-Feb-21 03:00N 33°32' E 131°51'1019.6
2018-Feb-21 02:30N 33°41' E 131°45'917.6
2018-Feb-21 02:00N 33°46' E 131°37'1019.4
2018-Feb-21 01:31N 33°47' E 131°25'918.8
2018-Feb-21 01:01N 33°49' E 131°14'815.4
2018-Feb-21 00:31N 33°49' E 131°05'4 8.9
2018-Feb-21 00:01N 33°46' E 131°00'0 0.0
2018-Feb-20 23:28N 33°46' E 131°00'0 0.0
2018-Feb-20 22:58N 33°46' E 131°00'0 0.0
2018-Feb-20 22:28N 33°46' E 131°00'0 0.0
2018-Feb-20 21:58N 33°46' E 131°00'0 0.0
2018-Feb-20 21:28N 33°46' E 131°00'0 0.0
2018-Feb-20 20:58N 33°46' E 131°00'0 0.0
2018-Feb-20 20:28N 33°46' E 131°00'0 0.0
2018-Feb-20 19:58N 33°46' E 131°00'0 0.0
2018-Feb-20 19:25N 33°46' E 131°00'0 0.0
2018-Feb-20 18:58N 33°46' E 131°00'0 0.0
2018-Feb-20 18:28N 33°46' E 131°00'0 0.8
2018-Feb-20 18:00N 33°47' E 131°00'5 9.4
2018-Feb-20 17:31N 33°49' E 131°05'714.0
2018-Feb-20 17:01N 33°49' E 131°13'917.6
2018-Feb-20 16:31N 33°47' E 131°24'1 2.6
2018-Feb-20 16:01N 33°46' E 131°24'917.5
2018-Feb-20 15:31N 33°45' E 131°35'917.2
2018-Feb-20 15:00N 33°43' E 131°45'918.0
2018-Feb-20 14:31N 33°37' E 131°53'918.1
2018-Feb-20 14:00N 33°29' E 131°56'1019.3
2018-Feb-20 13:30N 33°19' E 131°59'1016.2
2018-Feb-20 12:53N 33°11' E 132°07'14513.2
2018-Feb-20 01:53N 33°32' E 134°59'14617.2
2018-Feb-19 17:24N 34°18' E 137°45'1717.6
2018-Feb-19 16:24N 34°22' E 138°06'1016.8
2018-Feb-19 15:50N 34°24' E 138°17'516.0
2018-Feb-19 15:30N 34°25' E 138°23'1017.4
2018-Feb-19 14:55N 34°28' E 138°36'716.5
2018-Feb-19 14:30N 34°29' E 138°44'816.5
2018-Feb-19 14:01N 34°31' E 138°53'816.1
2018-Feb-19 13:30N 34°35' E 139°02'1117.9
2018-Feb-19 12:54N 34°45' E 139°08'718.1
2018-Feb-19 12:30N 34°50' E 139°14'917.8
2018-Feb-19 11:59N 34°56' E 139°23'817.7
2018-Feb-19 11:30N 35°00' E 139°32'917.9
2018-Feb-19 11:00N 35°06' E 139°40'816.9
2018-Feb-19 10:30N 35°13' E 139°46'611.1
2018-Feb-19 10:00N 35°18' E 139°44'4 8.3
2018-Feb-19 09:30N 35°19' E 139°39'0 0.0
2018-Feb-19 08:59N 35°19' E 139°39'0 0.0
2018-Feb-19 08:24N 35°19' E 139°39'0 0.0
2018-Feb-19 07:59N 35°19' E 139°39'0 0.0
2018-Feb-19 07:29N 35°19' E 139°39'0 0.0
2018-Feb-19 07:00N 35°19' E 139°39'0 0.0
2018-Feb-19 06:30N 35°19' E 139°39'0 0.0
2018-Feb-19 06:00N 35°19' E 139°39'0 0.0
2018-Feb-19 05:30N 35°19' E 139°39'0 0.0
2018-Feb-19 04:59N 35°19' E 139°39'0 0.0
2018-Feb-19 04:30N 35°19' E 139°39'0 0.0
2018-Feb-19 04:00N 35°19' E 139°39'0 0.0
2018-Feb-19 03:30N 35°19' E 139°39'0 0.0
2018-Feb-19 02:59N 35°19' E 139°39'0 0.0
2018-Feb-19 02:30N 35°19' E 139°39'0 0.0
2018-Feb-19 01:59N 35°19' E 139°39'0 0.0
2018-Feb-19 01:29N 35°19' E 139°39'0 0.0
2018-Feb-19 01:00N 35°19' E 139°39'0 0.0
2018-Feb-19 00:23N 35°19' E 139°39'0 0.0
2018-Feb-18 23:59N 35°19' E 139°39'0 0.0
2018-Feb-18 23:29N 35°19' E 139°39'0 0.2
2018-Feb-18 23:00N 35°19' E 139°39'2 2.9
2018-Feb-18 22:29N 35°19' E 139°41'0 0.1
2018-Feb-18 21:59N 35°19' E 139°41'0 0.0
2018-Feb-18 21:29N 35°19' E 139°41'0 0.0
2018-Feb-18 20:56N 35°19' E 139°41'0 0.0
2018-Feb-18 20:29N 35°19' E 139°41'0 0.0
2018-Feb-18 19:59N 35°19' E 139°41'0 0.1
2018-Feb-18 19:29N 35°19' E 139°41'0 0.1
2018-Feb-18 18:47N 35°19' E 139°41'0 0.0
2018-Feb-18 18:26N 35°19' E 139°41'0 0.0
2018-Feb-18 17:59N 35°19' E 139°41'0 0.1
2018-Feb-18 17:29N 35°19' E 139°41'0 0.1
2018-Feb-18 16:56N 35°19' E 139°41'0 0.0
2018-Feb-18 16:29N 35°19' E 139°41'0 0.0
2018-Feb-18 15:59N 35°19' E 139°41'0 0.0
2018-Feb-18 15:29N 35°19' E 139°41'0 0.1
2018-Feb-18 14:59N 35°19' E 139°41'0 0.1
2018-Feb-18 14:29N 35°19' E 139°41'0 0.1
2018-Feb-18 13:59N 35°19' E 139°41'0 0.0
2018-Feb-18 13:29N 35°19' E 139°41'0 0.6
2018-Feb-18 13:00N 35°19' E 139°42'510.9
2018-Feb-18 12:30N 35°15' E 139°47'815.1
2018-Feb-18 12:00N 35°08' E 139°45'918.9
2018-Feb-18 11:31N 35°00' E 139°39'1220.2
2018-Feb-18 10:54N 34°53' E 139°26'820.2
2018-Feb-18 10:30N 34°48' E 139°19'1120.5
2018-Feb-18 09:58N 34°41' E 139°08'1019.4
2018-Feb-18 09:27N 34°35' E 138°60'918.6
2018-Feb-18 08:57N 34°33' E 138°49'919.7
2018-Feb-18 08:30N 34°33' E 138°38'1019.9
2018-Feb-18 07:58N 34°32' E 138°25'1120.3
2018-Feb-18 07:27N 34°31' E 138°12'920.3
2018-Feb-18 07:01N 34°31' E 138°01'1119.9
2018-Feb-18 06:28N 34°31' E 137°48'1319.7
2018-Feb-18 05:48N 34°31' E 137°32'719.6
2018-Feb-18 05:27N 34°32' E 137°24'919.9
2018-Feb-18 04:59N 34°32' E 137°13'917.0
2018-Feb-18 04:27N 34°32' E 137°01'612.9
2018-Feb-18 04:00N 34°38' E 136°59'917.9
2018-Feb-18 03:30N 34°42' E 137°08'814.3
2018-Feb-18 02:56N 34°44' E 137°18'1 0.4
2018-Feb-18 00:20N 34°44' E 137°19'2 5.1
2018-Feb-17 23:59N 34°44' E 137°17'814.0
2018-Feb-17 23:27N 34°42' E 137°08'817.7
2018-Feb-17 23:00N 34°38' E 137°00'3716.6
2018-Feb-17 20:47N 34°03' E 136°48'24017.5
2018-Feb-17 07:03N 33°09' E 132°07'120.3
2018-Feb-17 07:00N 33°09' E 132°07'1121.6
2018-Feb-17 06:30N 33°18' E 131°59'1021.2
2018-Feb-17 06:00N 33°27' E 131°53'1121.6
2018-Feb-17 05:31N 33°37' E 131°48'1020.2
2018-Feb-17 05:01N 33°46' E 131°41'1121.0
2018-Feb-17 04:30N 33°47' E 131°28'1019.7
2018-Feb-17 04:00N 33°48' E 131°16'816.1
2018-Feb-17 03:30N 33°49' E 131°07'611.8
2018-Feb-17 03:00N 33°46' E 131°00'0 0.1
2018-Feb-17 02:28N 33°46' E 131°00'0 0.0
2018-Feb-17 01:58N 33°46' E 131°00'0 0.0
2018-Feb-17 01:28N 33°46' E 131°00'0 0.0
2018-Feb-17 00:58N 33°46' E 131°00'0 0.0
2018-Feb-17 00:19N 33°46' E 131°00'0 0.0
2018-Feb-16 23:58N 33°46' E 131°00'0 0.0
2018-Feb-16 23:28N 33°46' E 131°00'0 0.0
2018-Feb-16 22:58N 33°46' E 131°00'0 0.0
2018-Feb-16 22:28N 33°46' E 131°00'0 0.0
2018-Feb-16 21:58N 33°46' E 131°00'0 0.0
2018-Feb-16 21:28N 33°46' E 131°00'1 2.2
2018-Feb-16 21:00N 33°47' E 131°01'612.1
2018-Feb-16 20:30N 33°49' E 131°08'816.9
2018-Feb-16 20:01N 33°48' E 131°18'918.1
2018-Feb-16 19:30N 33°47' E 131°28'917.5
2018-Feb-16 19:00N 33°46' E 131°39'816.7
2018-Feb-16 18:30N 33°44' E 131°49'816.8
2018-Feb-16 18:00N 33°40' E 131°58'4 7.7
2018-Feb-16 17:30N 33°42' E 132°02'918.5
2018-Feb-16 16:59N 33°43' E 132°13'1018.8
2018-Feb-16 16:28N 33°46' E 132°25'1018.7
2018-Feb-16 15:55N 33°52' E 132°34'818.5
2018-Feb-16 15:30N 33°57' E 132°42'7313.7
2018-Feb-16 10:11N 34°27' E 134°03'315.6
2018-Feb-16 09:59N 34°27' E 134°06'919.4
2018-Feb-16 09:31N 34°24' E 134°17'1019.0
2018-Feb-16 09:00N 34°27' E 134°28'919.0
2018-Feb-16 08:30N 34°31' E 134°38'918.7
2018-Feb-16 08:00N 34°34' E 134°49'917.9
2018-Feb-16 07:30N 34°37' E 134°59'917.3
2018-Feb-16 07:00N 34°37' E 135°10'611.1
2018-Feb-16 06:30N 34°40' E 135°15'1 2.5
2018-Feb-16 06:00N 34°41' E 135°13'0 0.0
2018-Feb-16 05:29N 34°41' E 135°13'0 0.0
2018-Feb-16 04:59N 34°41' E 135°13'0 0.0
2018-Feb-16 04:29N 34°41' E 135°13'0 0.1
2018-Feb-16 04:00N 34°41' E 135°14'3 6.8
2018-Feb-16 03:31N 34°38' E 135°16'918.0
2018-Feb-16 03:01N 34°30' E 135°12'1019.5
2018-Feb-16 02:31N 34°23' E 135°04'917.8
2018-Feb-16 02:00N 34°15' E 134°60'1019.5
2018-Feb-16 01:30N 34°05' E 134°60'1019.7
2018-Feb-16 01:00N 33°55' E 134°59'919.0
2018-Feb-16 00:30N 33°47' E 135°05'13818.1
2018-Feb-15 16:54N 34°09' E 137°49'718.4
2018-Feb-15 16:31N 34°12' E 137°57'1018.5
2018-Feb-15 15:57N 34°15' E 138°09'817.7
2018-Feb-15 15:30N 34°18' E 138°18'916.7
2018-Feb-15 14:57N 34°21' E 138°28'817.3
2018-Feb-15 14:30N 34°24' E 138°37'916.9
2018-Feb-15 13:57N 34°28' E 138°47'817.3
2018-Feb-15 13:30N 34°32' E 138°56'917.2
2018-Feb-15 13:00N 34°37' E 139°03'1019.1
2018-Feb-15 12:28N 34°45' E 139°11'918.8
2018-Feb-15 11:59N 34°52' E 139°18'918.4
2018-Feb-15 11:30N 34°57' E 139°27'1019.3
2018-Feb-15 11:01N 35°02' E 139°37'918.6
2018-Feb-15 10:30N 35°09' E 139°45'714.0
2018-Feb-15 10:00N 35°16' E 139°46'611.7
2018-Feb-15 09:31N 35°19' E 139°39'0 0.5
2018-Feb-15 08:59N 35°19' E 139°39'0 0.0
2018-Feb-15 08:29N 35°19' E 139°39'0 0.0
2018-Feb-15 07:59N 35°19' E 139°39'0 0.0
2018-Feb-15 07:29N 35°19' E 139°39'0 0.0
2018-Feb-15 06:59N 35°19' E 139°39'0 0.0
2018-Feb-15 06:29N 35°19' E 139°39'0 0.0
2018-Feb-15 05:59N 35°19' E 139°39'0 0.0
2018-Feb-15 05:26N 35°19' E 139°39'0 0.0
2018-Feb-15 04:59N 35°19' E 139°39'0 0.0
2018-Feb-15 04:29N 35°19' E 139°39'0 0.0
2018-Feb-15 03:59N 35°19' E 139°39'0 0.2
2018-Feb-15 03:31N 35°19' E 139°39'4 7.9
2018-Feb-15 03:01N 35°18' E 139°44'611.8
2018-Feb-15 02:31N 35°13' E 139°47'714.0
2018-Feb-15 02:01N 35°06' E 139°45'816.6
2018-Feb-15 01:30N 34°59' E 139°40'816.4
2018-Feb-15 01:00N 34°54' E 139°31'  

Dump ship's entire track history